TimeCST,TemperatureF,Dew PointF,Humidity,Sea Level PressureIn,VisibilityMPH,Wind Direction,Wind SpeedMPH,Gust SpeedMPH,PrecipitationIn,Events,Conditions,WindDirDegrees,DateUTC
12:51 AM,66.0,63.0,90,29.87,9.0,SSE,6.9,-,N/A,,Partly Cloudy,160,2012-01-21 06:51:00
1:51 AM,63.0,62.1,97,29.87,9.0,SSE,5.8,-,N/A,,Partly Cloudy,160,2012-01-21 07:51:00
2:03 AM,62.6,60.8,94,29.87,9.0,SSE,5.8,-,N/A,,Partly Cloudy,160,2012-01-21 08:03:00
2:28 AM,62.6,60.8,94,29.88,2.5,SSE,4.6,-,N/A,,Scattered Clouds,150,2012-01-21 08:28:00
2:35 AM,62.6,60.8,94,29.87,0.8,SE,5.8,-,N/A,,Scattered Clouds,140,2012-01-21 08:35:00
2:41 AM,62.6,60.8,94,29.87,0.5,SE,5.8,-,N/A,Fog,Fog,130,2012-01-21 08:41:00
2:51 AM,62.1,61.0,96,29.86,0.2,SE,5.8,-,N/A,Fog,Fog,130,2012-01-21 08:51:00
3:08 AM,60.8,60.8,100,29.87,0.2,SE,5.8,-,N/A,Fog,Fog,140,2012-01-21 09:08:00
3:45 AM,62.6,60.8,94,29.86,0.2,SSE,6.9,-,N/A,Fog,Fog,150,2012-01-21 09:45:00
3:51 AM,62.1,61.0,96,29.86,0.2,SE,8.1,-,N/A,Fog,Fog,140,2012-01-21 09:51:00
4:47 AM,62.6,62.6,100,29.87,0.5,SSE,5.8,-,N/A,Fog,Fog,160,2012-01-21 10:47:00
4:51 AM,63.0,62.1,97,29.87,0.5,SSE,5.8,-,N/A,Fog,Fog,160,2012-01-21 10:51:00
4:57 AM,64.4,62.6,94,29.87,4.0,SSE,6.9,-,N/A,,Mostly Cloudy,160,2012-01-21 10:57:00
5:11 AM,64.4,64.4,100,29.88,6.0,South,6.9,-,N/A,,Overcast,170,2012-01-21 11:11:00
5:51 AM,64.9,64.0,97,29.86,8.0,South,5.8,-,N/A,,Overcast,170,2012-01-21 11:51:00
6:51 AM,66.9,64.9,93,29.91,8.0,Calm,Calm,-,N/A,,Overcast,0,2012-01-21 12:51:00
7:51 AM,68.0,64.9,90,29.94,5.0,NNE,3.5,-,N/A,,Overcast,20,2012-01-21 13:51:00
8:30 AM,69.8,66.2,88,29.94,5.0,Calm,Calm,-,N/A,,Overcast,0,2012-01-21 14:30:00
8:51 AM,69.1,66.0,90,29.95,5.0,Calm,Calm,-,N/A,,Overcast,0,2012-01-21 14:51:00
9:29 AM,69.8,66.2,88,29.96,6.0,Calm,Calm,-,N/A,,Mostly Cloudy,0,2012-01-21 15:29:00
9:51 AM,71.1,66.0,84,29.97,7.0,SSW,3.5,-,N/A,,Mostly Cloudy,200,2012-01-21 15:51:00
10:51 AM,72.0,66.0,81,29.97,7.0,Calm,Calm,-,N/A,,Overcast,0,2012-01-21 16:51:00
11:51 AM,73.9,64.9,73,29.95,10.0,Calm,Calm,-,N/A,,Mostly Cloudy,0,2012-01-21 17:51:00
12:51 PM,73.9,66.0,76,29.94,9.0,North,6.9,-,N/A,,Overcast,360,2012-01-21 18:51:00
1:49 PM,69.8,60.8,73,29.92,9.0,North,13.8,-,N/A,,Overcast,10,2012-01-21 19:49:00
1:51 PM,70.0,61.0,73,29.92,9.0,North,12.7,-,N/A,,Mostly Cloudy,10,2012-01-21 19:51:00
2:51 PM,70.0,60.1,71,29.91,10.0,North,11.5,-,N/A,,Scattered Clouds,360,2012-01-21 20:51:00
3:51 PM,69.1,59.0,70,29.90,10.0,North,11.5,-,N/A,,Partly Cloudy,10,2012-01-21 21:51:00
4:07 PM,69.8,59.0,68,29.91,10.0,North,11.5,-,N/A,,Mostly Cloudy,10,2012-01-21 22:07:00
4:51 PM,68.0,57.9,70,29.91,10.0,North,10.4,-,N/A,,Overcast,10,2012-01-21 22:51:00
5:51 PM,64.9,57.0,75,29.90,10.0,NE,8.1,-,N/A,,Overcast,50,2012-01-21 23:51:00
6:16 PM,64.4,57.2,77,29.90,10.0,NE,9.2,-,N/A,,Overcast,50,2012-01-22 00:16:00
6:51 PM,64.0,57.0,78,29.90,10.0,NE,10.4,-,N/A,,Overcast,40,2012-01-22 00:51:00
7:51 PM,64.0,57.9,80,29.90,9.0,East,6.9,-,N/A,,Overcast,80,2012-01-22 01:51:00
8:51 PM,64.0,57.0,78,29.91,10.0,ENE,6.9,-,N/A,,Overcast,70,2012-01-22 02:51:00
9:51 PM,64.0,57.0,78,29.90,9.0,East,8.1,-,N/A,,Overcast,80,2012-01-22 03:51:00
10:51 PM,64.0,57.0,78,29.89,10.0,East,9.2,-,N/A,,Overcast,90,2012-01-22 04:51:00
11:51 PM,64.9,60.1,84,29.88,8.0,East,8.1,-,N/A,,Overcast,80,2012-01-22 05:51:00